Time;durP1;ratioP1;P1;durP2;ratioP2;P2;SDS_P1;SDS_P2;PMS_P1;PMS_P2;Temp;Humidity;BMP_temperature;BMP_pressure;BME280_temperature;BME280_humidity;BME280_pressure;Samples;Min_cycle;Max_cycle;Signal;HPM_P1;HPM_P2
2021/10/06 00:02:16;;;;;;;2.85;2.50;;;;;;;13.41;74.60;100254.53;4919056;28;127427;-61
2021/10/06 00:04:42;;;;;;;2.90;2.25;;;;;;;13.41;74.75;100262.66;4917754;28;122797;-58
2021/10/06 00:07:08;;;;;;;2.67;2.45;;;;;;;13.40;74.79;100263.72;4919856;28;98187;-61
2021/10/06 00:09:34;;;;;;;2.20;2.00;;;;;;;13.39;74.45;100268.34;4918994;28;127816;-59
2021/10/06 00:12:00;;;;;;;2.97;2.35;;;;;;;13.38;74.91;100269.44;4918840;28;126740;-61
2021/10/06 00:14:26;;;;;;;3.22;2.60;;;;;;;13.35;74.41;100269.22;4919949;28;123068;-59
2021/10/06 00:16:53;;;;;;;3.42;2.22;;;;;;;13.33;73.90;100264.09;4917044;28;128085;-60
2021/10/06 00:19:20;;;;;;;2.95;2.28;;;;;;;13.31;74.32;100268.19;4920465;28;99041;-59
2021/10/06 00:21:46;;;;;;;2.47;2.17;;;;;;;13.29;73.95;100270.38;4919507;28;98201;-59
2021/10/06 00:24:12;;;;;;;2.90;2.33;;;;;;;13.26;74.31;100266.34;4919511;28;114774;-61
2021/10/06 00:26:38;;;;;;;2.40;2.20;;;;;;;13.24;74.12;100261.22;4885363;28;98296;-59
2021/10/06 00:29:05;;;;;;;3.10;2.20;;;;;;;13.21;74.04;100272.59;4919176;28;126723;-58
2021/10/06 00:31:31;;;;;;;3.22;2.28;;;;;;;13.19;74.27;100263.94;4919794;28;98087;-59
2021/10/06 00:33:57;;;;;;;3.50;2.28;;;;;;;13.17;74.41;100271.56;4918506;28;122992;-61
2021/10/06 00:36:23;;;;;;;2.65;2.25;;;;;;;13.17;74.21;100259.94;4917944;28;98701;-61
2021/10/06 00:38:49;;;;;;;3.72;2.30;;;;;;;13.11;74.21;100256.47;4906887;28;126393;-61
2021/10/06 00:41:15;;;;;;;3.10;2.20;;;;;;;13.11;74.48;100261.88;4910272;28;128090;-62
2021/10/06 00:43:41;;;;;;;3.40;2.25;;;;;;;13.07;74.14;100271.66;4919451;28;98213;-61
2021/10/06 00:46:07;;;;;;;3.22;2.90;;;;;;;13.08;74.05;100275.97;4913869;28;108173;-59
2021/10/06 00:48:33;;;;;;;2.90;2.50;;;;;;;13.06;74.68;100278.19;4916628;28;128163;-59
2021/10/06 00:50:59;;;;;;;2.60;2.40;;;;;;;13.08;74.88;100270.56;4920706;28;127415;-58
2021/10/06 00:53:26;;;;;;;3.38;2.88;;;;;;;13.07;74.54;100279.00;4922746;28;106960;-61
2021/10/06 00:55:53;;;;;;;4.38;2.47;;;;;;;13.05;74.20;100278.47;4923088;28;98210;-58
2021/10/06 00:58:19;;;;;;;2.70;2.50;;;;;;;13.02;74.80;100272.53;4920086;28;116870;-58
2021/10/06 01:00:46;;;;;;;3.58;2.30;;;;;;;13.04;74.94;100269.53;4920951;28;98196;-59
2021/10/06 01:03:12;;;;;;;3.17;2.60;;;;;;;13.10;74.80;100273.00;4922666;28;97753;-61
2021/10/06 01:05:38;;;;;;;2.80;2.42;;;;;;;13.15;74.79;100273.75;4904364;28;115570;-61
2021/10/06 01:08:04;;;;;;;3.88;2.85;;;;;;;13.20;74.43;100271.00;4919644;28;125796;-58
2021/10/06 01:10:31;;;;;;;4.88;3.20;;;;;;;13.21;74.37;100267.19;4921812;28;121898;-60
2021/10/06 01:12:57;;;;;;;3.40;2.92;;;;;;;13.22;74.42;100276.91;4920990;28;120961;-58
2021/10/06 01:15:23;;;;;;;3.35;3.05;;;;;;;13.25;74.22;100279.06;4919847;28;128039;-61
2021/10/06 01:17:49;;;;;;;4.30;2.88;;;;;;;13.29;74.58;100278.50;4922253;28;118010;-61
2021/10/06 01:20:16;;;;;;;4.63;3.50;;;;;;;13.30;74.36;100272.78;4922459;28;97855;-58
2021/10/06 01:22:42;;;;;;;3.90;3.42;;;;;;;13.33;74.26;100277.63;4914932;28;100272;-61
2021/10/06 01:25:12;;;;;;;3.38;3.08;;;;;;;13.31;73.91;100268.97;4922528;28;105026;-61
2021/10/06 01:27:38;;;;;;;3.58;2.80;;;;;;;13.35;73.85;100270.00;4921962;28;98320;-61
2021/10/06 01:30:06;;;;;;;4.55;3.40;;;;;;;13.35;73.79;100280.84;4922289;28;127472;-58
2021/10/06 01:32:37;;;;;;;4.60;3.33;;;;;;;13.33;73.83;100274.91;4921362;28;115886;-61
2021/10/06 01:35:05;;;;;;;4.00;3.60;;;;;;;13.33;73.97;100269.50;4921820;28;121387;-59
2021/10/06 01:37:31;;;;;;;4.45;4.03;;;;;;;13.30;73.93;100278.19;4921721;28;99364;-61
2021/10/06 01:39:58;;;;;;;6.22;3.97;;;;;;;13.31;74.38;100279.00;4922463;28;97789;-59
2021/10/06 01:42:24;;;;;;;5.55;4.63;;;;;;;13.31;73.99;100276.28;4919850;28;109405;-58
2021/10/06 01:44:50;;;;;;;5.68;4.43;;;;;;;13.30;73.80;100278.19;4922200;28;128018;-62
2021/10/06 01:47:24;;;;;;;5.20;4.20;;;;;;;13.30;74.10;100272.78;4921072;28;127973;-61
2021/10/06 01:49:50;;;;;;;4.43;3.53;;;;;;;13.30;73.99;100277.41;4920045;28;98221;-59
2021/10/06 01:52:24;;;;;;;5.00;4.30;;;;;;;13.31;73.77;100284.41;4919080;28;116296;-61
2021/10/06 01:54:52;;;;;;;5.15;4.10;;;;;;;13.34;74.11;100284.66;4916838;28;100768;-59
2021/10/06 01:57:18;;;;;;;5.18;4.00;;;;;;;13.35;74.08;100285.44;4921767;28;98208;-61
2021/10/06 01:59:45;;;;;;;4.75;4.22;;;;;;;13.33;73.91;100298.47;4921708;28;106202;-61
2021/10/06 02:02:11;;;;;;;7.05;4.80;;;;;;;13.32;73.95;100294.94;4919658;28;98293;-61
2021/10/06 02:04:38;;;;;;;4.97;4.38;;;;;;;13.27;74.07;100290.41;4921336;28;128415;-59
2021/10/06 02:07:04;;;;;;;5.15;4.55;;;;;;;13.27;74.01;100297.72;4903383;28;119358;-58
2021/10/06 02:09:30;;;;;;;5.20;4.70;;;;;;;13.26;74.29;100296.13;4903210;28;127889;-59
2021/10/06 02:11:56;;;;;;;6.20;4.88;;;;;;;13.24;74.14;100293.72;4920674;28;122763;-59
2021/10/06 02:14:22;;;;;;;5.50;4.95;;;;;;;13.23;73.81;100294.78;4919821;28;113581;-59
2021/10/06 02:16:49;;;;;;;5.00;4.50;;;;;;;13.22;73.78;100303.16;4919189;28;118491;-59
2021/10/06 02:19:15;;;;;;;6.10;5.38;;;;;;;13.20;74.00;100308.06;4921243;28;127439;-61
2021/10/06 02:21:41;;;;;;;6.25;5.07;;;;;;;13.19;73.87;100309.97;4903055;28;120894;-61
2021/10/06 02:24:07;;;;;;;6.10;5.15;;;;;;;13.17;73.74;100314.88;4921019;28;126904;-61
2021/10/06 02:26:34;;;;;;;5.82;4.70;;;;;;;13.15;73.91;100318.94;4903829;28;98638;-59
2021/10/06 02:29:00;;;;;;;5.75;4.30;;;;;;;13.13;74.13;100326.56;4921187;28;115679;-61
2021/10/06 02:31:26;;;;;;;5.45;4.82;;;;;;;13.11;74.07;100318.72;4921342;28;100596;-61
2021/10/06 02:33:52;;;;;;;5.22;4.72;;;;;;;13.12;73.73;100327.63;4920493;28;127760;-59
2021/10/06 02:36:18;;;;;;;4.93;4.40;;;;;;;13.12;73.81;100324.94;4920911;28;127655;-59
2021/10/06 02:38:44;;;;;;;6.10;5.22;;;;;;;13.11;73.95;100334.94;4920647;28;122490;-59
2021/10/06 02:41:10;;;;;;;6.32;4.95;;;;;;;13.12;74.38;100338.47;4921000;28;123896;-59
2021/10/06 02:43:36;;;;;;;5.95;5.07;;;;;;;13.11;73.41;100334.94;4920491;28;126280;-59
2021/10/06 02:46:03;;;;;;;8.27;5.40;;;;;;;13.11;73.60;100340.34;4920958;28;128127;-59
2021/10/06 02:48:29;;;;;;;5.50;4.90;;;;;;;13.12;73.92;100354.69;4920554;28;126940;-59
2021/10/06 02:50:55;;;;;;;5.65;4.85;;;;;;;13.12;73.86;100362.81;4921186;28;108841;-61
2021/10/06 02:53:21;;;;;;;6.53;4.50;;;;;;;13.12;73.38;100358.19;4920407;28;106207;-61
2021/10/06 02:55:47;;;;;;;7.72;4.72;;;;;;;13.13;73.45;100367.97;4919926;28;128592;-61
2021/10/06 02:58:13;;;;;;;5.10;4.45;;;;;;;13.14;73.54;100363.34;4920488;28;111177;-58
2021/10/06 03:00:39;;;;;;;4.45;4.05;;;;;;;13.14;73.94;100364.16;4921634;28;97870;-61
2021/10/06 03:03:06;;;;;;;5.25;4.65;;;;;;;13.15;73.56;100373.06;4920106;28;98032;-61
2021/10/06 03:05:32;;;;;;;4.45;3.97;;;;;;;13.15;73.12;100370.38;4918171;28;125970;-62
2021/10/06 03:07:58;;;;;;;5.10;4.25;;;;;;;13.15;73.55;100382.00;4919269;28;115875;-59
2021/10/06 03:10:24;;;;;;;5.10;4.10;;;;;;;13.16;73.36;100388.22;4921263;28;104895;-61
2021/10/06 03:12:50;;;;;;;5.63;4.10;;;;;;;13.15;73.54;100390.13;4919254;28;127966;-61
2021/10/06 03:15:16;;;;;;;5.93;4.07;;;;;;;13.15;72.98;100395.53;4919166;28;98700;-59
2021/10/06 03:17:42;;;;;;;6.20;3.88;;;;;;;13.14;72.71;100393.91;4902597;28;98141;-61
2021/10/06 03:20:10;;;;;;;5.38;3.80;;;;;;;13.14;73.23;100401.22;4919625;28;98073;-61
2021/10/06 03:22:36;;;;;;;4.20;3.53;;;;;;;13.15;73.29;100402.84;4920199;28;97809;-59
2021/10/06 03:25:03;;;;;;;3.85;3.28;;;;;;;13.14;73.45;100403.94;4919949;28;116094;-61
2021/10/06 03:27:29;;;;;;;4.43;3.80;;;;;;;13.15;73.04;100411.75;4901737;28;110982;-59
2021/10/06 03:29:55;;;;;;;3.20;2.90;;;;;;;13.15;73.13;100417.19;4920144;28;111498;-61
2021/10/06 03:32:21;;;;;;;3.75;2.90;;;;;;;13.14;73.41;100433.72;4918288;28;128422;-61
2021/10/06 03:34:47;;;;;;;3.28;2.50;;;;;;;13.12;72.98;100433.97;4921075;28;101241;-61
2021/10/06 03:37:13;;;;;;;4.72;2.10;;;;;;;13.12;73.17;100442.09;4918524;28;126224;-58
2021/10/06 03:39:39;;;;;;;2.53;1.77;;;;;;;13.14;73.16;100439.94;4920155;28;121771;-61
2021/10/06 03:42:05;;;;;;;3.38;2.00;;;;;;;13.15;73.11;100436.13;4885953;28;98321;-61
2021/10/06 03:44:31;;;;;;;3.25;1.45;;;;;;;13.17;72.58;100438.56;4919248;28;127808;-61
2021/10/06 03:46:57;;;;;;;3.25;1.90;;;;;;;13.20;73.16;100437.97;4919072;28;128336;-59
2021/10/06 03:49:23;;;;;;;3.97;2.50;;;;;;;13.22;72.96;100443.91;4921201;28;97733;-59
2021/10/06 03:51:49;;;;;;;4.07;3.40;;;;;;;13.24;72.66;100441.75;4918702;28;127340;-61
2021/10/06 03:54:15;;;;;;;4.75;3.05;;;;;;;13.24;72.69;100439.88;4919100;28;123696;-61
2021/10/06 03:56:41;;;;;;;4.53;2.90;;;;;;;13.29;72.89;100447.13;4920050;28;111738;-61
2021/10/06 03:59:07;;;;;;;2.47;1.98;;;;;;;13.30;72.94;100448.75;4919325;28;120664;-59
2021/10/06 04:01:33;;;;;;;3.22;1.48;;;;;;;13.29;72.81;100449.03;4919281;28;128659;-61
2021/10/06 04:03:59;;;;;;;2.13;1.20;;;;;;;13.33;72.89;100464.41;4919097;28;127224;-59
2021/10/06 04:06:25;;;;;;;1.95;1.00;;;;;;;13.34;73.00;100468.72;4919492;28;127240;-59
2021/10/06 04:08:51;;;;;;;2.35;0.70;;;;;;;13.35;72.80;100456.00;4917532;28;122353;-61
2021/10/06 04:11:17;;;;;;;1.95;0.70;;;;;;;13.36;72.43;100469.25;4920342;28;98220;-58
2021/10/06 04:13:43;;;;;;;1.40;0.65;;;;;;;13.37;72.38;100478.19;4918925;28;126844;-59
2021/10/06 04:16:09;;;;;;;1.60;0.70;;;;;;;13.38;72.92;100477.09;4919251;28;128043;-59
2021/10/06 04:18:35;;;;;;;1.77;0.60;;;;;;;13.39;72.92;100484.13;4917766;28;123556;-59
2021/10/06 04:21:02;;;;;;;2.25;0.40;;;;;;;13.40;72.52;100478.44;4919673;28;128780;-59
2021/10/06 04:23:28;;;;;;;1.42;0.30;;;;;;;13.40;72.04;100481.13;4919707;28;99533;-59
2021/10/06 04:25:54;;;;;;;1.67;0.40;;;;;;;13.42;72.25;100484.34;4918478;28;126294;-61
2021/10/06 04:28:20;;;;;;;1.05;0.30;;;;;;;13.41;71.84;100487.34;4916839;28;119975;-61
2021/10/06 04:30:46;;;;;;;1.55;0.30;;;;;;;13.42;72.10;100491.66;4917086;28;126664;-62
2021/10/06 04:33:12;;;;;;;1.58;0.20;;;;;;;13.44;70.93;100489.47;4918664;28;128969;-61
2021/10/06 04:35:38;;;;;;;2.60;0.20;;;;;;;13.44;70.55;100501.13;4917303;28;127411;-59
2021/10/06 04:38:04;;;;;;;3.78;0.28;;;;;;;13.44;70.34;100503.84;4917691;28;116246;-59
2021/10/06 04:40:30;;;;;;;2.45;0.20;;;;;;;13.44;70.43;100509.25;4885299;28;121414;-61
2021/10/06 04:42:56;;;;;;;1.73;0.20;;;;;;;13.45;69.79;100518.19;4900306;28;126544;-59
2021/10/06 04:45:22;;;;;;;1.90;0.30;;;;;;;13.46;70.12;100522.50;4919920;28;103184;-61
2021/10/06 04:47:48;;;;;;;1.42;0.22;;;;;;;13.45;69.61;100527.13;4919417;28;97982;-59
2021/10/06 04:50:14;;;;;;;1.50;0.20;;;;;;;13.46;69.61;100527.91;4918877;28;125752;-58
2021/10/06 04:52:40;;;;;;;1.75;0.20;;;;;;;13.44;69.39;100532.78;4917919;28;128663;-61
2021/10/06 04:55:07;;;;;;;0.88;0.20;;;;;;;13.44;69.70;100527.38;4918748;28;127452;-61
2021/10/06 04:57:33;;;;;;;1.25;0.20;;;;;;;13.44;69.00;100540.91;4916588;28;106380;-61
2021/10/06 04:59:59;;;;;;;3.17;0.30;;;;;;;13.43;69.17;100534.69;4901532;28;98436;-61
2021/10/06 05:02:25;;;;;;;1.70;0.20;;;;;;;13.43;68.85;100536.59;4919396;28;99169;-61
2021/10/06 05:04:51;;;;;;;1.73;0.10;;;;;;;13.43;68.96;100548.22;4918989;28;126911;-61
2021/10/06 05:07:17;;;;;;;1.73;0.20;;;;;;;13.44;68.90;100551.75;4916481;28;123686;-61
2021/10/06 05:09:43;;;;;;;4.28;0.28;;;;;;;13.43;68.83;100553.66;4918483;28;127265;-58
2021/10/06 05:12:09;;;;;;;2.97;0.25;;;;;;;13.43;68.56;100550.94;4918978;28;109080;-62
2021/10/06 05:14:35;;;;;;;1.80;0.20;;;;;;;13.43;68.65;100544.72;4918880;28;104230;-61
2021/10/06 05:17:03;;;;;;;1.55;0.10;;;;;;;13.43;68.30;100544.72;4916534;28;122214;-59
2021/10/06 05:19:29;;;;;;;2.70;0.10;;;;;;;13.41;67.92;100555.03;4919681;28;97883;-59
2021/10/06 05:21:55;;;;;;;1.50;0.10;;;;;;;13.41;67.63;100557.75;4917297;28;99081;-61
2021/10/06 05:24:21;;;;;;;1.13;0.10;;;;;;;13.41;67.64;100560.47;4918875;28;126628;-58
2021/10/06 05:26:47;;;;;;;1.80;0.13;;;;;;;13.40;67.52;100559.66;4918323;28;123483;-61
2021/10/06 05:29:13;;;;;;;2.85;0.17;;;;;;;13.41;67.72;100572.09;4918493;28;128093;-61
2021/10/06 05:31:41;;;;;;;2.40;0.20;;;;;;;13.42;67.65;100576.41;4918894;28;126929;-61
2021/10/06 05:34:07;;;;;;;2.65;0.10;;;;;;;13.42;67.25;100576.41;4918865;28;98381;-59
2021/10/06 05:36:33;;;;;;;1.25;0.13;;;;;;;13.44;67.18;100579.66;4919723;28;115298;-61
2021/10/06 05:38:59;;;;;;;0.82;0.13;;;;;;;13.45;67.01;100578.56;4920720;28;129693;-59
2021/10/06 05:41:25;;;;;;;1.40;0.10;;;;;;;13.47;66.91;100587.19;4921774;28;98433;-61
2021/10/06 05:43:51;;;;;;;1.73;0.20;;;;;;;13.49;66.72;100589.63;4920983;28;125438;-61
2021/10/06 05:46:17;;;;;;;1.65;0.20;;;;;;;13.51;66.39;100588.25;4923025;28;97964;-58
2021/10/06 05:48:43;;;;;;;1.38;0.10;;;;;;;13.53;66.46;100596.09;4922093;28;98928;-59
2021/10/06 05:51:09;;;;;;;1.45;0.17;;;;;;;13.56;66.95;100586.56;4919175;28;128609;-61
2021/10/06 05:53:35;;;;;;;1.75;0.20;;;;;;;13.59;66.63;100600.38;4918907;28;115537;-58
2021/10/06 05:56:02;;;;;;;1.55;0.10;;;;;;;13.60;66.51;100604.72;4919898;28;109457;-61
2021/10/06 05:58:28;;;;;;;1.80;0.10;;;;;;;13.62;66.28;100609.84;4903592;28;98858;-59
2021/10/06 06:00:55;;;;;;;2.05;0.20;;;;;;;13.62;66.26;100613.34;4919788;28;99200;-59
2021/10/06 06:03:21;;;;;;;3.50;0.20;;;;;;;13.61;66.68;100611.72;4921753;28;98113;-59
2021/10/06 06:05:47;;;;;;;1.40;0.10;;;;;;;13.61;66.68;100619.84;4921343;28;122309;-61
2021/10/06 06:08:13;;;;;;;2.00;0.20;;;;;;;13.62;66.32;100624.19;4921312;28;99096;-59
2021/10/06 06:10:39;;;;;;;2.05;0.20;;;;;;;13.61;66.32;100629.88;4918774;28;127273;-59
2021/10/06 06:13:05;;;;;;;1.75;0.20;;;;;;;13.62;66.40;100635.00;4921168;28;126753;-61
2021/10/06 06:15:32;;;;;;;2.92;0.15;;;;;;;13.65;66.76;100639.06;4919482;28;122379;-61
2021/10/06 06:17:58;;;;;;;2.45;0.20;;;;;;;13.71;66.76;100636.00;4903321;28;98598;-63
2021/10/06 06:20:24;;;;;;;1.67;0.20;;;;;;;13.75;66.96;100653.34;4919294;28;127785;-61
2021/10/06 06:22:51;;;;;;;1.23;0.20;;;;;;;13.82;66.51;100666.53;4921445;28;98113;-59
2021/10/06 06:25:18;;;;;;;2.10;0.20;;;;;;;13.87;66.25;100665.69;4921419;28;97893;-61
2021/10/06 06:27:44;;;;;;;1.35;0.25;;;;;;;13.93;66.07;100667.28;4921222;28;98718;-59
2021/10/06 06:30:10;;;;;;;2.50;0.20;;;;;;;13.98;66.00;100676.16;4920329;28;127005;-61
2021/10/06 06:32:36;;;;;;;0.70;0.20;;;;;;;14.03;65.71;100659.06;4921564;28;105718;-61
2021/10/06 06:35:04;;;;;;;2.95;0.20;;;;;;;14.05;66.00;100659.56;4902703;28;121624;-61
2021/10/06 06:37:30;;;;;;;1.48;0.20;;;;;;;14.07;65.86;100660.09;4919064;28;98140;-59
2021/10/06 06:39:56;;;;;;;1.55;0.20;;;;;;;14.10;65.17;100664.94;4921647;28;111920;-59
2021/10/06 06:42:22;;;;;;;1.73;0.20;;;;;;;14.15;65.74;100666.81;4902065;28;115596;-61
2021/10/06 06:44:48;;;;;;;1.65;0.20;;;;;;;14.19;65.22;100674.06;4918807;28;122467;-61
2021/10/06 06:47:14;;;;;;;1.48;0.15;;;;;;;14.24;65.52;100678.63;4917960;28;126969;-61
2021/10/06 06:49:40;;;;;;;3.63;0.30;;;;;;;14.30;65.24;100680.19;4920819;28;98393;-61
2021/10/06 06:52:06;;;;;;;2.30;0.20;;;;;;;14.37;65.83;100677.13;4919624;28;98051;-61
2021/10/06 06:54:32;;;;;;;2.17;0.20;;;;;;;14.39;65.60;100673.06;4921070;28;97779;-59
2021/10/06 06:56:58;;;;;;;1.55;0.20;;;;;;;14.43;65.51;100676.81;4901293;28;129256;-58
2021/10/06 06:59:24;;;;;;;2.05;0.30;;;;;;;14.49;65.29;100681.09;4919981;28;125461;-59
2021/10/06 07:01:50;;;;;;;2.95;0.40;;;;;;;14.59;64.90;100682.09;4920433;28;98028;-61
2021/10/06 07:04:16;;;;;;;2.72;0.40;;;;;;;14.70;64.60;100694.47;4920348;28;123418;-61
2021/10/06 07:06:42;;;;;;;2.55;0.40;;;;;;;14.84;64.54;100684.50;4919080;28;128893;-61
2021/10/06 07:09:09;;;;;;;3.25;0.30;;;;;;;15.02;64.18;100695.69;4921045;28;98340;-58
2021/10/06 07:11:35;;;;;;;1.75;0.20;;;;;;;15.19;63.82;100696.00;4919572;28;98096;-60
2021/10/06 07:14:01;;;;;;;3.17;0.20;;;;;;;15.42;63.24;100700.56;4920774;28;108627;-59
2021/10/06 07:16:27;;;;;;;2.75;0.30;;;;;;;15.57;62.85;100702.25;4920840;28;124123;-59
2021/10/06 07:18:53;;;;;;;1.80;0.20;;;;;;;15.63;62.41;100701.06;4901889;28;120686;-59
2021/10/06 07:21:19;;;;;;;1.33;0.20;;;;;;;15.65;62.51;100698.88;4919849;28;128164;-59
2021/10/06 07:23:45;;;;;;;1.45;0.20;;;;;;;15.64;62.75;100697.25;4920416;28;97639;-61
2021/10/06 07:26:12;;;;;;;1.70;0.20;;;;;;;15.60;62.55;100701.66;4919530;28;108957;-61
2021/10/06 07:28:38;;;;;;;1.67;0.20;;;;;;;15.52;62.41;100705.03;4921048;28;97738;-59
2021/10/06 07:31:05;;;;;;;1.73;0.20;;;;;;;15.42;62.29;100699.75;4919672;28;126713;-59
2021/10/06 07:33:31;;;;;;;1.85;0.40;;;;;;;15.36;62.18;100707.16;4919832;28;103777;-61
2021/10/06 07:35:57;;;;;;;1.45;0.30;;;;;;;15.33;61.94;100704.25;4920886;28;98237;-61
2021/10/06 07:38:23;;;;;;;2.47;0.68;;;;;;;15.32;62.07;100714.28;4920153;28;99202;-59
2021/10/06 07:40:49;;;;;;;1.70;0.22;;;;;;;15.35;61.50;100716.41;4919747;28;125432;-61
2021/10/06 07:43:15;;;;;;;1.77;0.20;;;;;;;15.34;61.67;100716.72;4920498;28;98479;-59
2021/10/06 07:45:42;;;;;;;1.60;0.20;;;;;;;15.39;60.92;100716.63;4919910;28;126836;-59
2021/10/06 07:48:08;;;;;;;1.02;0.20;;;;;;;15.50;60.84;100722.72;4901317;28;114275;-59
2021/10/06 07:50:34;;;;;;;2.33;0.20;;;;;;;15.60;60.80;100728.84;4919364;28;125697;-59
2021/10/06 07:53:01;;;;;;;1.52;0.20;;;;;;;16.03;59.51;100727.91;4919136;28;122467;-61
2021/10/06 07:55:27;;;;;;;1.92;0.20;;;;;;;16.33;59.09;100730.09;4901720;28;107519;-61
2021/10/06 07:57:53;;;;;;;1.08;0.10;;;;;;;16.52;58.08;100732.75;4917724;28;120872;-61
2021/10/06 08:00:19;;;;;;;1.65;0.20;;;;;;;16.63;57.79;100734.19;4918462;28;122772;-59
2021/10/06 08:02:45;;;;;;;2.20;0.20;;;;;;;16.99;57.18;100738.97;4917591;28;97755;-61
2021/10/06 08:05:11;;;;;;;1.35;0.20;;;;;;;17.93;55.26;100740.19;4917560;28;125967;-59
2021/10/06 08:07:37;;;;;;;2.13;0.30;;;;;;;18.89;52.85;100734.09;4916832;28;126387;-59
2021/10/06 08:10:05;;;;;;;0.85;0.20;;;;;;;19.37;51.82;100740.63;4919450;28;128315;-61
2021/10/06 08:12:31;;;;;;;1.58;0.22;;;;;;;19.84;50.97;100747.13;4919969;28;98055;-60
2021/10/06 08:14:57;;;;;;;2.88;0.20;;;;;;;20.24;49.70;100754.31;4919031;28;108230;-59
2021/10/06 08:17:23;;;;;;;1.38;0.30;;;;;;;21.22;47.90;100756.06;4918385;28;126933;-60
2021/10/06 08:19:49;;;;;;;1.17;0.30;;;;;;;22.97;44.26;100756.84;4920490;28;97810;-61
2021/10/06 08:22:17;;;;;;;2.47;0.20;;;;;;;26.08;39.36;100764.88;4917778;28;97842;-62
2021/10/06 08:24:43;;;;;;;1.52;0.20;;;;;;;30.63;32.51;100781.44;4918220;28;98344;-60
2021/10/06 08:27:11;;;;;;;1.13;0.20;;;;;;;33.56;29.21;100791.09;4918534;28;126287;-61
2021/10/06 08:29:37;;;;;;;1.92;0.50;;;;;;;35.80;26.44;100794.31;4920179;28;97997;-63
2021/10/06 08:32:04;;;;;;;1.40;0.20;;;;;;;37.85;24.77;100802.81;4918817;28;122922;-61
2021/10/06 08:34:30;;;;;;;1.42;0.20;;;;;;;38.61;24.01;100792.84;4917174;28;98971;-63
2021/10/06 08:36:56;;;;;;;1.63;0.20;;;;;;;40.29;21.87;100786.75;4918999;28;126837;-61
2021/10/06 08:39:22;;;;;;;2.17;0.30;;;;;;;41.78;20.70;100793.59;4919307;28;126719;-61
2021/10/06 08:41:48;;;;;;;1.73;0.30;;;;;;;43.10;19.14;100778.59;4919443;28;97687;-61
2021/10/06 08:44:15;;;;;;;1.33;0.30;;;;;;;43.73;18.42;100774.81;4917773;28;122977;-61
2021/10/06 08:46:42;;;;;;;1.70;0.30;;;;;;;42.86;19.07;100758.00;4901307;28;115598;-61
2021/10/06 08:49:08;;;;;;;1.52;0.32;;;;;;;41.99;20.02;100769.19;4916959;28;115904;-61
2021/10/06 08:51:34;;;;;;;1.55;0.32;;;;;;;42.92;18.48;100758.91;4919207;28;122679;-61
2021/10/06 08:54:00;;;;;;;1.25;0.40;;;;;;;44.44;17.41;100773.59;4919227;28;109685;-61
2021/10/06 08:56:28;;;;;;;1.00;0.32;;;;;;;45.34;16.19;100762.53;4919121;28;98126;-62
2021/10/06 08:58:54;;;;;;;1.40;0.30;;;;;;;44.64;16.75;100763.53;4919730;28;97865;-61
2021/10/06 09:01:25;;;;;;;2.85;0.40;;;;;;;45.58;15.97;100765.88;4916923;28;121321;-62
2021/10/06 09:03:56;;;;;;;2.00;0.40;;;;;;;46.07;15.88;100751.78;4918167;28;97720;-60
2021/10/06 09:06:29;;;;;;;1.08;0.30;;;;;;;45.76;15.99;100765.50;4919132;28;97984;-60
2021/10/06 09:08:55;;;;;;;1.33;0.30;;;;;;;44.26;16.66;100754.03;4901114;28;118829;-59
2021/10/06 09:11:21;;;;;;;1.33;0.32;;;;;;;42.47;18.26;100755.09;4901037;28;124301;-59
2021/10/06 09:13:48;;;;;;;0.93;0.22;;;;;;;43.30;17.55;100752.41;4918472;28;129085;-61
2021/10/06 09:16:17;;;;;;;0.90;0.20;;;;;;;44.66;16.98;100749.66;4920447;28;98761;-60
2021/10/06 09:18:43;;;;;;;1.75;0.30;;;;;;;44.75;15.83;100758.00;4921859;28;98168;-60
2021/10/06 09:21:09;;;;;;;1.00;0.22;;;;;;;43.70;16.59;100756.72;4920525;28;122702;-59
2021/10/06 09:23:40;;;;;;;1.67;0.30;;;;;;;41.19;18.08;100747.84;4921093;28;98834;-61
2021/10/06 09:26:11;;;;;;;2.25;0.30;;;;;;;37.91;20.38;100747.63;4922074;28;117960;-59
2021/10/06 09:28:50;;;;;;;1.33;0.30;;;;;;;35.02;23.67;100749.00;4921846;28;106732;-60
2021/10/06 09:31:26;;;;;;;1.05;0.20;;;;;;;32.59;25.35;100738.19;4922928;28;97791;-60
2021/10/06 09:33:57;;;;;;;0.90;0.20;;;;;;;31.96;24.77;100744.59;4922141;28;97950;-59
2021/10/06 09:36:30;;;;;;;1.23;0.20;;;;;;;30.94;26.06;100740.94;4921872;28;99232;-59
2021/10/06 09:39:02;;;;;;;2.60;0.20;;;;;;;29.64;27.79;100738.31;4922051;28;97979;-58
2021/10/06 09:41:39;;;;;;;2.15;0.28;;;;;;;28.66;29.47;100749.97;4921914;28;111645;-58
2021/10/06 09:44:22;;;;;;;1.98;0.20;;;;;;;27.73;30.38;100760.03;4921420;28;117975;-61
2021/10/06 09:47:00;;;;;;;2.05;0.20;;;;;;;27.07;31.03;100759.50;4921843;28;98195;-61
2021/10/06 09:49:34;;;;;;;1.55;0.20;;;;;;;26.11;32.41;100760.59;4921468;28;109130;-62
2021/10/06 09:52:19;;;;;;;1.13;0.20;;;;;;;25.02;33.74;100768.84;4920255;28;97883;-61
2021/10/06 09:54:58;;;;;;;0.90;0.10;;;;;;;24.34;34.80;100765.19;4919142;28;117942;-61
2021/10/06 09:57:29;;;;;;;1.65;0.10;;;;;;;23.91;35.42;100775.03;4920155;28;98820;-62
2021/10/06 10:00:07;;;;;;;2.60;0.20;;;;;;;23.52;35.68;100771.09;4922253;28;98055;-62
2021/10/06 10:02:34;;;;;;;1.33;0.20;;;;;;;23.16;36.62;100772.75;4921119;28;97878;-63
2021/10/06 10:05:00;;;;;;;2.20;0.20;;;;;;;22.90;37.07;100775.00;4921663;28;109854;-62
2021/10/06 10:07:26;;;;;;;1.42;0.20;;;;;;;22.71;37.75;100776.38;4920139;28;99646;-61
2021/10/06 10:09:52;;;;;;;0.88;0.20;;;;;;;22.53;37.69;100775.78;4903790;28;114996;-60
2021/10/06 10:12:24;;;;;;;1.77;0.20;;;;;;;22.30;38.53;100778.13;4920353;28;97853;-62
2021/10/06 10:14:50;;;;;;;2.25;0.10;;;;;;;22.12;38.63;100784.88;4921975;28;98527;-61
2021/10/06 10:17:16;;;;;;;1.45;0.20;;;;;;;21.98;38.89;100787.94;4921559;28;109717;-62
2021/10/06 10:19:56;;;;;;;1.48;0.20;;;;;;;21.87;38.74;100794.16;4920360;28;127014;-61
2021/10/06 10:22:30;;;;;;;2.20;0.20;;;;;;;21.80;39.06;100794.69;4921705;28;97910;-61
2021/10/06 10:24:57;;;;;;;1.85;0.20;;;;;;;21.81;39.62;100799.03;4921338;28;119520;-62
2021/10/06 10:27:24;;;;;;;1.92;0.20;;;;;;;21.79;39.66;100791.16;4903359;28;104740;-62
2021/10/06 10:30:09;;;;;;;1.75;0.10;;;;;;;21.84;39.61;100803.06;4919794;28;108076;-62
2021/10/06 10:32:43;;;;;;;3.78;0.10;;;;;;;21.82;39.28;100803.41;4910168;28;113027;-62
2021/10/06 10:35:11;;;;;;;1.00;0.20;;;;;;;21.81;39.31;100807.25;4921267;28;98243;-62
2021/10/06 10:37:49;;;;;;;0.82;0.20;;;;;;;21.87;39.27;100816.91;4921174;28;98800;-61
2021/10/06 10:40:42;;;;;;;1.58;0.20;;;;;;;22.17;38.71;100811.38;4921806;28;98141;-61
2021/10/06 10:43:27;;;;;;;1.88;0.20;;;;;;;22.52;38.56;100823.63;4920964;28;97734;-62
2021/10/06 10:46:12;;;;;;;1.42;0.20;;;;;;;22.66;38.42;100817.00;4921847;28;99146;-62
2021/10/06 10:48:56;;;;;;;1.52;0.20;;;;;;;22.74;38.19;100807.84;4921019;28;98040;-61
2021/10/06 10:51:55;;;;;;;0.57;0.10;;;;;;;22.73;38.13;100809.81;4920990;28;98281;-62
2021/10/06 10:54:41;;;;;;;0.95;0.10;;;;;;;22.64;37.97;100811.88;4920643;28;98088;-62
2021/10/06 10:57:22;;;;;;;1.33;0.20;;;;;;;22.58;38.20;100820.66;4920932;28;98573;-62
2021/10/06 10:59:53;;;;;;;1.05;0.13;;;;;;;22.84;37.03;100826.66;4905676;28;98492;-62
2021/10/06 11:02:34;;;;;;;1.10;0.20;;;;;;;22.85;37.68;100843.94;4887301;28;97985;-61
2021/10/06 11:05:10;;;;;;;2.35;0.20;;;;;;;22.53;37.84;100832.66;4920786;28;97963;-62
2021/10/06 11:07:52;;;;;;;1.33;0.10;;;;;;;22.28;38.71;100834.50;4920004;28;98560;-62
2021/10/06 11:10:19;;;;;;;1.65;0.20;;;;;;;22.15;38.91;100841.88;4922003;28;98258;-62
2021/10/06 11:13:03;;;;;;;0.60;0.10;;;;;;;22.03;38.57;100845.34;4895322;28;98261;-62
2021/10/06 11:15:30;;;;;;;0.95;0.10;;;;;;;22.00;38.65;100846.00;4908874;28;97656;-61
2021/10/06 11:18:18;;;;;;;1.10;0.20;;;;;;;22.43;38.02;100841.31;4920099;28;99331;-60
2021/10/06 11:21:02;;;;;;;1.02;0.10;;;;;;;22.29;38.52;100850.66;4921439;28;98790;-61
2021/10/06 11:23:31;;;;;;;2.67;0.32;;;;;;;22.13;38.68;100857.09;4920344;28;98599;-61